sensor_id;sensor_type;location;lat;lon;timestamp;P1;durP1;ratioP1;P2;durP2;ratioP2
9214;SDS011;4642;51.364;6.788;2023-10-13T00:02:10;15.77;;;9.73;;
9214;SDS011;4642;51.364;6.788;2023-10-13T00:04:36;14.10;;;9.40;;
9214;SDS011;4642;51.364;6.788;2023-10-13T00:07:02;14.00;;;9.70;;
9214;SDS011;4642;51.364;6.788;2023-10-13T00:09:29;14.73;;;9.97;;
9214;SDS011;4642;51.364;6.788;2023-10-13T00:12:02;12.93;;;9.20;;
9214;SDS011;4642;51.364;6.788;2023-10-13T00:14:29;13.03;;;8.97;;
9214;SDS011;4642;51.364;6.788;2023-10-13T00:17:01;22.33;;;9.50;;
9214;SDS011;4642;51.364;6.788;2023-10-13T00:19:35;15.63;;;9.30;;
9214;SDS011;4642;51.364;6.788;2023-10-13T00:22:14;13.13;;;8.90;;
9214;SDS011;4642;51.364;6.788;2023-10-13T00:24:41;18.20;;;9.50;;
9214;SDS011;4642;51.364;6.788;2023-10-13T00:27:11;13.40;;;8.10;;
9214;SDS011;4642;51.364;6.788;2023-10-13T00:30:02;15.80;;;9.47;;
9214;SDS011;4642;51.364;6.788;2023-10-13T00:32:47;14.97;;;8.47;;
9214;SDS011;4642;51.364;6.788;2023-10-13T00:35:20;13.93;;;8.83;;
9214;SDS011;4642;51.364;6.788;2023-10-13T00:38:02;16.70;;;8.80;;
9214;SDS011;4642;51.364;6.788;2023-10-13T00:40:43;14.40;;;8.37;;
9214;SDS011;4642;51.364;6.788;2023-10-13T00:43:16;15.60;;;8.73;;
9214;SDS011;4642;51.364;6.788;2023-10-13T00:45:45;13.13;;;8.70;;
9214;SDS011;4642;51.364;6.788;2023-10-13T00:48:32;14.97;;;9.13;;
9214;SDS011;4642;51.364;6.788;2023-10-13T00:51:09;13.60;;;8.40;;
9214;SDS011;4642;51.364;6.788;2023-10-13T00:53:56;14.53;;;8.73;;
9214;SDS011;4642;51.364;6.788;2023-10-13T00:56:22;15.27;;;8.80;;
9214;SDS011;4642;51.364;6.788;2023-10-13T00:58:52;13.63;;;8.70;;
9214;SDS011;4642;51.364;6.788;2023-10-13T01:01:23;11.43;;;8.43;;
9214;SDS011;4642;51.364;6.788;2023-10-13T01:03:55;16.83;;;8.67;;
9214;SDS011;4642;51.364;6.788;2023-10-13T01:06:24;13.57;;;8.80;;
9214;SDS011;4642;51.364;6.788;2023-10-13T01:08:59;13.20;;;8.10;;
9214;SDS011;4642;51.364;6.788;2023-10-13T01:11:48;17.00;;;8.47;;
9214;SDS011;4642;51.364;6.788;2023-10-13T01:14:19;11.20;;;7.93;;
9214;SDS011;4642;51.364;6.788;2023-10-13T01:16:45;14.47;;;9.67;;
9214;SDS011;4642;51.364;6.788;2023-10-13T01:19:12;15.53;;;8.90;;
9214;SDS011;4642;51.364;6.788;2023-10-13T01:21:42;12.40;;;8.77;;
9214;SDS011;4642;51.364;6.788;2023-10-13T01:24:09;12.93;;;9.10;;
9214;SDS011;4642;51.364;6.788;2023-10-13T01:26:38;14.17;;;9.57;;
9214;SDS011;4642;51.364;6.788;2023-10-13T01:29:06;14.47;;;9.63;;
9214;SDS011;4642;51.364;6.788;2023-10-13T01:31:43;11.30;;;8.57;;
9214;SDS011;4642;51.364;6.788;2023-10-13T01:34:15;11.87;;;8.43;;
9214;SDS011;4642;51.364;6.788;2023-10-13T01:36:47;10.70;;;8.87;;
9214;SDS011;4642;51.364;6.788;2023-10-13T01:39:18;14.07;;;8.57;;
9214;SDS011;4642;51.364;6.788;2023-10-13T01:41:51;15.70;;;9.33;;
9214;SDS011;4642;51.364;6.788;2023-10-13T01:44:21;10.70;;;8.73;;
9214;SDS011;4642;51.364;6.788;2023-10-13T01:46:47;11.33;;;8.73;;
9214;SDS011;4642;51.364;6.788;2023-10-13T01:49:13;12.57;;;8.60;;
9214;SDS011;4642;51.364;6.788;2023-10-13T01:51:41;12.27;;;8.63;;
9214;SDS011;4642;51.364;6.788;2023-10-13T01:54:07;12.87;;;9.37;;
9214;SDS011;4642;51.364;6.788;2023-10-13T01:56:37;15.23;;;8.53;;
9214;SDS011;4642;51.364;6.788;2023-10-13T01:59:07;12.80;;;8.80;;
9214;SDS011;4642;51.364;6.788;2023-10-13T02:01:34;11.47;;;8.63;;
9214;SDS011;4642;51.364;6.788;2023-10-13T02:04:00;12.50;;;8.47;;
9214;SDS011;4642;51.364;6.788;2023-10-13T02:06:30;13.30;;;8.63;;
9214;SDS011;4642;51.364;6.788;2023-10-13T02:09:03;11.90;;;8.10;;
9214;SDS011;4642;51.364;6.788;2023-10-13T02:11:38;16.50;;;9.27;;
9214;SDS011;4642;51.364;6.788;2023-10-13T02:14:10;15.13;;;8.80;;
9214;SDS011;4642;51.364;6.788;2023-10-13T02:16:36;12.93;;;8.53;;
9214;SDS011;4642;51.364;6.788;2023-10-13T02:19:02;13.70;;;8.40;;
9214;SDS011;4642;51.364;6.788;2023-10-13T02:21:33;14.33;;;8.23;;
9214;SDS011;4642;51.364;6.788;2023-10-13T02:24:07;13.67;;;8.77;;
9214;SDS011;4642;51.364;6.788;2023-10-13T02:26:44;14.60;;;8.27;;
9214;SDS011;4642;51.364;6.788;2023-10-13T02:29:10;12.70;;;8.60;;
9214;SDS011;4642;51.364;6.788;2023-10-13T02:31:39;13.17;;;8.73;;
9214;SDS011;4642;51.364;6.788;2023-10-13T02:34:06;10.77;;;8.77;;
9214;SDS011;4642;51.364;6.788;2023-10-13T02:36:37;12.70;;;9.70;;
9214;SDS011;4642;51.364;6.788;2023-10-13T02:39:16;10.63;;;8.47;;
9214;SDS011;4642;51.364;6.788;2023-10-13T02:41:50;16.23;;;8.63;;
9214;SDS011;4642;51.364;6.788;2023-10-13T02:44:16;12.23;;;8.73;;
9214;SDS011;4642;51.364;6.788;2023-10-13T02:46:56;15.73;;;8.53;;
9214;SDS011;4642;51.364;6.788;2023-10-13T02:49:22;16.07;;;8.73;;
9214;SDS011;4642;51.364;6.788;2023-10-13T02:51:51;13.33;;;8.40;;
9214;SDS011;4642;51.364;6.788;2023-10-13T02:54:18;12.07;;;8.67;;
9214;SDS011;4642;51.364;6.788;2023-10-13T02:56:44;13.47;;;8.33;;
9214;SDS011;4642;51.364;6.788;2023-10-13T02:59:23;9.23;;;8.30;;
9214;SDS011;4642;51.364;6.788;2023-10-13T03:02:00;15.30;;;9.73;;
9214;SDS011;4642;51.364;6.788;2023-10-13T03:04:32;16.60;;;9.53;;
9214;SDS011;4642;51.364;6.788;2023-10-13T03:06:57;14.40;;;9.47;;
9214;SDS011;4642;51.364;6.788;2023-10-13T03:09:24;11.77;;;8.57;;
9214;SDS011;4642;51.364;6.788;2023-10-13T03:11:50;12.83;;;8.90;;
9214;SDS011;4642;51.364;6.788;2023-10-13T03:14:22;15.50;;;9.07;;
9214;SDS011;4642;51.364;6.788;2023-10-13T03:16:52;12.37;;;8.80;;
9214;SDS011;4642;51.364;6.788;2023-10-13T03:19:19;16.53;;;10.03;;
9214;SDS011;4642;51.364;6.788;2023-10-13T03:21:45;15.87;;;9.30;;
9214;SDS011;4642;51.364;6.788;2023-10-13T03:24:19;16.90;;;9.10;;
9214;SDS011;4642;51.364;6.788;2023-10-13T03:26:58;11.83;;;9.30;;
9214;SDS011;4642;51.364;6.788;2023-10-13T03:29:24;17.10;;;10.43;;
9214;SDS011;4642;51.364;6.788;2023-10-13T03:31:55;14.37;;;9.47;;
9214;SDS011;4642;51.364;6.788;2023-10-13T03:34:31;14.83;;;10.63;;
9214;SDS011;4642;51.364;6.788;2023-10-13T03:36:57;16.83;;;10.47;;
9214;SDS011;4642;51.364;6.788;2023-10-13T03:39:23;13.13;;;9.47;;
9214;SDS011;4642;51.364;6.788;2023-10-13T03:41:56;12.07;;;10.20;;
9214;SDS011;4642;51.364;6.788;2023-10-13T03:44:22;12.40;;;10.33;;
9214;SDS011;4642;51.364;6.788;2023-10-13T03:46:48;12.60;;;10.17;;
9214;SDS011;4642;51.364;6.788;2023-10-13T03:49:17;12.97;;;10.17;;
9214;SDS011;4642;51.364;6.788;2023-10-13T03:51:50;18.33;;;10.43;;
9214;SDS011;4642;51.364;6.788;2023-10-13T03:54:19;12.80;;;9.97;;
9214;SDS011;4642;51.364;6.788;2023-10-13T03:56:45;20.03;;;10.90;;
9214;SDS011;4642;51.364;6.788;2023-10-13T03:59:11;12.33;;;10.30;;
9214;SDS011;4642;51.364;6.788;2023-10-13T04:01:40;15.03;;;10.23;;
9214;SDS011;4642;51.364;6.788;2023-10-13T04:04:11;13.40;;;10.93;;
9214;SDS011;4642;51.364;6.788;2023-10-13T04:06:39;15.27;;;10.20;;
9214;SDS011;4642;51.364;6.788;2023-10-13T04:09:17;15.20;;;10.40;;
9214;SDS011;4642;51.364;6.788;2023-10-13T04:14:31;14.47;;;10.67;;
9214;SDS011;4642;51.364;6.788;2023-10-13T04:17:16;12.77;;;10.07;;
9214;SDS011;4642;51.364;6.788;2023-10-13T04:19:47;16.03;;;9.87;;
9214;SDS011;4642;51.364;6.788;2023-10-13T04:22:32;17.70;;;10.23;;
9214;SDS011;4642;51.364;6.788;2023-10-13T04:25:13;16.00;;;10.60;;
9214;SDS011;4642;51.364;6.788;2023-10-13T04:28:02;16.50;;;10.50;;
9214;SDS011;4642;51.364;6.788;2023-10-13T04:30:37;19.20;;;10.67;;
9214;SDS011;4642;51.364;6.788;2023-10-13T04:33:26;16.50;;;11.87;;
9214;SDS011;4642;51.364;6.788;2023-10-13T04:36:11;15.03;;;10.80;;
9214;SDS011;4642;51.364;6.788;2023-10-13T04:38:50;15.27;;;10.63;;
9214;SDS011;4642;51.364;6.788;2023-10-13T04:41:26;16.73;;;10.70;;
9214;SDS011;4642;51.364;6.788;2023-10-13T04:44:14;16.83;;;10.73;;
9214;SDS011;4642;51.364;6.788;2023-10-13T04:46:59;15.87;;;10.73;;
9214;SDS011;4642;51.364;6.788;2023-10-13T04:49:26;20.33;;;12.37;;
9214;SDS011;4642;51.364;6.788;2023-10-13T04:51:54;14.53;;;10.97;;
9214;SDS011;4642;51.364;6.788;2023-10-13T04:54:45;20.13;;;12.27;;
9214;SDS011;4642;51.364;6.788;2023-10-13T04:57:14;15.20;;;10.93;;
9214;SDS011;4642;51.364;6.788;2023-10-13T04:59:56;17.83;;;11.23;;
9214;SDS011;4642;51.364;6.788;2023-10-13T05:02:27;21.90;;;11.23;;
9214;SDS011;4642;51.364;6.788;2023-10-13T05:05:09;15.17;;;11.03;;
9214;SDS011;4642;51.364;6.788;2023-10-13T05:07:42;22.33;;;12.20;;
9214;SDS011;4642;51.364;6.788;2023-10-13T05:10:27;19.80;;;11.30;;
9214;SDS011;4642;51.364;6.788;2023-10-13T05:13:11;16.77;;;11.07;;
9214;SDS011;4642;51.364;6.788;2023-10-13T05:15:55;13.93;;;10.40;;
9214;SDS011;4642;51.364;6.788;2023-10-13T05:18:39;17.50;;;11.83;;
9214;SDS011;4642;51.364;6.788;2023-10-13T05:21:23;16.83;;;11.07;;
9214;SDS011;4642;51.364;6.788;2023-10-13T05:24:08;16.77;;;11.20;;
9214;SDS011;4642;51.364;6.788;2023-10-13T05:26:52;18.47;;;12.03;;
9214;SDS011;4642;51.364;6.788;2023-10-13T05:29:40;24.67;;;13.07;;
9214;SDS011;4642;51.364;6.788;2023-10-13T05:32:25;17.30;;;11.80;;
9214;SDS011;4642;51.364;6.788;2023-10-13T05:35:10;18.77;;;12.27;;
9214;SDS011;4642;51.364;6.788;2023-10-13T05:37:55;18.63;;;12.47;;
9214;SDS011;4642;51.364;6.788;2023-10-13T05:40:40;17.70;;;11.63;;
9214;SDS011;4642;51.364;6.788;2023-10-13T05:43:34;17.83;;;12.27;;
9214;SDS011;4642;51.364;6.788;2023-10-13T05:46:18;18.83;;;12.13;;
9214;SDS011;4642;51.364;6.788;2023-10-13T05:48:53;19.33;;;12.57;;
9214;SDS011;4642;51.364;6.788;2023-10-13T05:51:25;19.10;;;11.80;;
9214;SDS011;4642;51.364;6.788;2023-10-13T05:53:58;19.20;;;11.87;;
9214;SDS011;4642;51.364;6.788;2023-10-13T05:56:42;16.90;;;12.70;;
9214;SDS011;4642;51.364;6.788;2023-10-13T05:59:27;20.83;;;11.33;;
9214;SDS011;4642;51.364;6.788;2023-10-13T06:02:15;18.60;;;10.67;;
9214;SDS011;4642;51.364;6.788;2023-10-13T06:05:04;18.13;;;9.90;;
9214;SDS011;4642;51.364;6.788;2023-10-13T06:07:52;31.07;;;10.60;;
9214;SDS011;4642;51.364;6.788;2023-10-13T06:10:37;22.20;;;9.57;;
9214;SDS011;4642;51.364;6.788;2023-10-13T06:13:22;20.00;;;9.63;;
9214;SDS011;4642;51.364;6.788;2023-10-13T06:16:07;16.40;;;8.63;;
9214;SDS011;4642;51.364;6.788;2023-10-13T06:18:52;17.47;;;8.23;;
9214;SDS011;4642;51.364;6.788;2023-10-13T06:21:36;11.47;;;7.90;;
9214;SDS011;4642;51.364;6.788;2023-10-13T06:24:21;18.70;;;7.73;;
9214;SDS011;4642;51.364;6.788;2023-10-13T06:27:05;17.70;;;7.87;;
9214;SDS011;4642;51.364;6.788;2023-10-13T06:29:49;12.70;;;7.20;;
9214;SDS011;4642;51.364;6.788;2023-10-13T06:32:15;24.33;;;7.83;;
9214;SDS011;4642;51.364;6.788;2023-10-13T06:34:41;16.37;;;7.27;;
9214;SDS011;4642;51.364;6.788;2023-10-13T06:37:16;20.83;;;7.33;;
9214;SDS011;4642;51.364;6.788;2023-10-13T06:39:58;15.33;;;6.90;;
9214;SDS011;4642;51.364;6.788;2023-10-13T06:42:31;13.73;;;7.27;;
9214;SDS011;4642;51.364;6.788;2023-10-13T06:44:59;20.23;;;7.13;;
9214;SDS011;4642;51.364;6.788;2023-10-13T06:47:28;18.30;;;7.67;;
9214;SDS011;4642;51.364;6.788;2023-10-13T06:49:53;17.37;;;7.73;;
9214;SDS011;4642;51.364;6.788;2023-10-13T06:52:22;27.97;;;7.93;;
9214;SDS011;4642;51.364;6.788;2023-10-13T06:54:51;18.40;;;8.10;;
9214;SDS011;4642;51.364;6.788;2023-10-13T06:57:20;16.50;;;8.20;;
9214;SDS011;4642;51.364;6.788;2023-10-13T06:59:46;15.03;;;8.30;;
9214;SDS011;4642;51.364;6.788;2023-10-13T07:02:12;18.87;;;7.13;;
9214;SDS011;4642;51.364;6.788;2023-10-13T07:04:47;19.30;;;7.93;;
9214;SDS011;4642;51.364;6.788;2023-10-13T07:07:13;15.70;;;8.67;;
9214;SDS011;4642;51.364;6.788;2023-10-13T07:09:40;23.33;;;8.97;;
9214;SDS011;4642;51.364;6.788;2023-10-13T07:12:20;17.90;;;8.43;;
9214;SDS011;4642;51.364;6.788;2023-10-13T07:14:51;18.37;;;9.47;;
9214;SDS011;4642;51.364;6.788;2023-10-13T07:17:18;16.90;;;8.87;;
9214;SDS011;4642;51.364;6.788;2023-10-13T07:19:53;15.97;;;9.47;;
9214;SDS011;4642;51.364;6.788;2023-10-13T07:22:22;15.27;;;9.10;;
9214;SDS011;4642;51.364;6.788;2023-10-13T07:24:49;15.43;;;8.93;;
9214;SDS011;4642;51.364;6.788;2023-10-13T07:27:21;17.77;;;9.33;;
9214;SDS011;4642;51.364;6.788;2023-10-13T07:32:31;21.47;;;10.10;;
9214;SDS011;4642;51.364;6.788;2023-10-13T07:34:59;18.63;;;10.83;;
9214;SDS011;4642;51.364;6.788;2023-10-13T07:37:33;18.10;;;10.73;;
9214;SDS011;4642;51.364;6.788;2023-10-13T07:39:58;19.13;;;10.70;;
9214;SDS011;4642;51.364;6.788;2023-10-13T07:42:27;26.80;;;10.33;;
9214;SDS011;4642;51.364;6.788;2023-10-13T07:45:04;14.87;;;10.30;;
9214;SDS011;4642;51.364;6.788;2023-10-13T07:47:30;18.13;;;10.03;;
9214;SDS011;4642;51.364;6.788;2023-10-13T07:49:58;18.93;;;9.63;;
9214;SDS011;4642;51.364;6.788;2023-10-13T07:52:23;18.00;;;9.97;;
9214;SDS011;4642;51.364;6.788;2023-10-13T07:54:51;18.23;;;9.67;;
9214;SDS011;4642;51.364;6.788;2023-10-13T07:57:36;17.00;;;9.00;;
9214;SDS011;4642;51.364;6.788;2023-10-13T08:00:17;17.90;;;9.07;;
9214;SDS011;4642;51.364;6.788;2023-10-13T08:03:02;20.97;;;10.57;;
9214;SDS011;4642;51.364;6.788;2023-10-13T08:05:54;20.93;;;9.63;;
9214;SDS011;4642;51.364;6.788;2023-10-13T08:08:43;16.23;;;9.77;;
9214;SDS011;4642;51.364;6.788;2023-10-13T08:11:14;17.90;;;10.10;;
9214;SDS011;4642;51.364;6.788;2023-10-13T08:16:19;20.43;;;8.90;;
9214;SDS011;4642;51.364;6.788;2023-10-13T08:18:48;16.50;;;9.10;;
9214;SDS011;4642;51.364;6.788;2023-10-13T08:21:15;18.00;;;10.03;;
9214;SDS011;4642;51.364;6.788;2023-10-13T08:23:56;19.67;;;9.70;;
9214;SDS011;4642;51.364;6.788;2023-10-13T08:26:24;20.67;;;9.63;;
9214;SDS011;4642;51.364;6.788;2023-10-13T08:28:57;12.93;;;9.07;;
9214;SDS011;4642;51.364;6.788;2023-10-13T08:31:44;21.53;;;9.20;;
9214;SDS011;4642;51.364;6.788;2023-10-13T08:34:29;21.83;;;9.50;;
9214;SDS011;4642;51.364;6.788;2023-10-13T08:37:28;17.00;;;9.00;;
9214;SDS011;4642;51.364;6.788;2023-10-13T08:39:58;14.97;;;8.93;;
9214;SDS011;4642;51.364;6.788;2023-10-13T08:42:31;16.53;;;8.97;;
9214;SDS011;4642;51.364;6.788;2023-10-13T08:45:07;18.67;;;9.10;;
9214;SDS011;4642;51.364;6.788;2023-10-13T08:47:53;13.70;;;8.20;;
9214;SDS011;4642;51.364;6.788;2023-10-13T08:50:22;20.00;;;9.33;;
9214;SDS011;4642;51.364;6.788;2023-10-13T08:53:14;20.17;;;8.90;;
9214;SDS011;4642;51.364;6.788;2023-10-13T08:56:02;20.93;;;8.63;;
9214;SDS011;4642;51.364;6.788;2023-10-13T08:58:38;22.20;;;8.50;;
9214;SDS011;4642;51.364;6.788;2023-10-13T09:01:17;20.73;;;8.63;;
9214;SDS011;4642;51.364;6.788;2023-10-13T09:04:07;14.83;;;7.60;;
9214;SDS011;4642;51.364;6.788;2023-10-13T09:06:49;13.33;;;7.57;;
9214;SDS011;4642;51.364;6.788;2023-10-13T09:09:32;17.67;;;7.53;;
9214;SDS011;4642;51.364;6.788;2023-10-13T09:12:20;17.57;;;8.10;;
9214;SDS011;4642;51.364;6.788;2023-10-13T09:14:54;20.07;;;7.80;;
9214;SDS011;4642;51.364;6.788;2023-10-13T09:17:23;19.17;;;8.03;;
9214;SDS011;4642;51.364;6.788;2023-10-13T09:20:07;17.63;;;8.40;;
9214;SDS011;4642;51.364;6.788;2023-10-13T09:22:52;18.00;;;7.40;;
9214;SDS011;4642;51.364;6.788;2023-10-13T09:25:28;15.37;;;7.83;;
9214;SDS011;4642;51.364;6.788;2023-10-13T09:28:01;14.60;;;8.13;;
9214;SDS011;4642;51.364;6.788;2023-10-13T09:30:35;17.80;;;7.17;;
9214;SDS011;4642;51.364;6.788;2023-10-13T09:33:11;18.50;;;7.20;;
9214;SDS011;4642;51.364;6.788;2023-10-13T09:35:45;16.63;;;7.50;;
9214;SDS011;4642;51.364;6.788;2023-10-13T09:38:19;13.70;;;7.73;;
9214;SDS011;4642;51.364;6.788;2023-10-13T09:40:45;19.17;;;7.23;;
9214;SDS011;4642;51.364;6.788;2023-10-13T09:43:15;16.30;;;6.73;;
9214;SDS011;4642;51.364;6.788;2023-10-13T09:45:43;16.43;;;6.67;;
9214;SDS011;4642;51.364;6.788;2023-10-13T09:48:33;18.60;;;6.93;;
9214;SDS011;4642;51.364;6.788;2023-10-13T09:51:04;12.57;;;5.90;;
9214;SDS011;4642;51.364;6.788;2023-10-13T09:53:33;13.47;;;5.73;;
9214;SDS011;4642;51.364;6.788;2023-10-13T09:58:55;17.40;;;6.37;;
9214;SDS011;4642;51.364;6.788;2023-10-13T10:01:33;18.67;;;6.10;;
9214;SDS011;4642;51.364;6.788;2023-10-13T10:04:22;12.63;;;6.10;;
9214;SDS011;4642;51.364;6.788;2023-10-13T10:06:55;12.87;;;6.00;;
9214;SDS011;4642;51.364;6.788;2023-10-13T10:09:28;12.10;;;6.10;;
9214;SDS011;4642;51.364;6.788;2023-10-13T10:12:19;11.87;;;6.03;;
9214;SDS011;4642;51.364;6.788;2023-10-13T10:15:09;12.87;;;6.47;;
9214;SDS011;4642;51.364;6.788;2023-10-13T10:17:55;12.67;;;6.20;;
9214;SDS011;4642;51.364;6.788;2023-10-13T10:20:30;15.23;;;6.60;;
9214;SDS011;4642;51.364;6.788;2023-10-13T10:23:09;13.27;;;6.63;;
9214;SDS011;4642;51.364;6.788;2023-10-13T10:25:42;15.13;;;6.43;;
9214;SDS011;4642;51.364;6.788;2023-10-13T10:28:11;8.77;;;5.67;;
9214;SDS011;4642;51.364;6.788;2023-10-13T10:30:40;12.73;;;6.30;;
9214;SDS011;4642;51.364;6.788;2023-10-13T10:33:07;15.77;;;5.87;;
9214;SDS011;4642;51.364;6.788;2023-10-13T10:35:46;12.67;;;6.10;;
9214;SDS011;4642;51.364;6.788;2023-10-13T10:38:23;15.37;;;6.23;;
9214;SDS011;4642;51.364;6.788;2023-10-13T10:40:50;10.80;;;6.10;;
9214;SDS011;4642;51.364;6.788;2023-10-13T10:43:17;12.10;;;6.17;;
9214;SDS011;4642;51.364;6.788;2023-10-13T10:45:47;18.50;;;6.20;;
9214;SDS011;4642;51.364;6.788;2023-10-13T10:48:16;13.07;;;6.53;;
9214;SDS011;4642;51.364;6.788;2023-10-13T10:50:51;14.67;;;6.07;;
9214;SDS011;4642;51.364;6.788;2023-10-13T10:53:21;10.93;;;6.10;;
9214;SDS011;4642;51.364;6.788;2023-10-13T10:56:03;11.43;;;5.93;;
9214;SDS011;4642;51.364;6.788;2023-10-13T10:58:33;12.53;;;6.50;;
9214;SDS011;4642;51.364;6.788;2023-10-13T11:01:08;11.53;;;6.30;;
9214;SDS011;4642;51.364;6.788;2023-10-13T11:03:52;13.63;;;6.10;;
9214;SDS011;4642;51.364;6.788;2023-10-13T11:06:20;12.03;;;6.23;;
9214;SDS011;4642;51.364;6.788;2023-10-13T11:08:49;14.23;;;6.10;;
9214;SDS011;4642;51.364;6.788;2023-10-13T11:11:28;11.93;;;6.60;;
9214;SDS011;4642;51.364;6.788;2023-10-13T11:14:00;12.57;;;6.70;;
9214;SDS011;4642;51.364;6.788;2023-10-13T11:16:47;9.20;;;5.97;;
9214;SDS011;4642;51.364;6.788;2023-10-13T11:19:20;15.23;;;6.57;;
9214;SDS011;4642;51.364;6.788;2023-10-13T11:21:50;12.90;;;6.00;;
9214;SDS011;4642;51.364;6.788;2023-10-13T11:24:18;14.13;;;6.43;;
9214;SDS011;4642;51.364;6.788;2023-10-13T11:26:43;11.37;;;6.10;;
9214;SDS011;4642;51.364;6.788;2023-10-13T11:29:16;15.70;;;5.87;;
9214;SDS011;4642;51.364;6.788;2023-10-13T11:31:46;10.90;;;5.83;;
9214;SDS011;4642;51.364;6.788;2023-10-13T11:34:18;11.53;;;5.90;;
9214;SDS011;4642;51.364;6.788;2023-10-13T11:36:44;18.47;;;6.27;;
9214;SDS011;4642;51.364;6.788;2023-10-13T11:39:10;15.70;;;5.83;;
9214;SDS011;4642;51.364;6.788;2023-10-13T11:41:44;17.77;;;5.83;;
9214;SDS011;4642;51.364;6.788;2023-10-13T11:44:19;10.67;;;5.10;;
9214;SDS011;4642;51.364;6.788;2023-10-13T11:46:45;12.00;;;5.73;;
9214;SDS011;4642;51.364;6.788;2023-10-13T11:49:13;16.20;;;5.93;;
9214;SDS011;4642;51.364;6.788;2023-10-13T11:51:46;13.33;;;5.43;;
9214;SDS011;4642;51.364;6.788;2023-10-13T11:56:40;18.17;;;5.73;;
9214;SDS011;4642;51.364;6.788;2023-10-13T11:59:06;17.63;;;6.13;;
9214;SDS011;4642;51.364;6.788;2023-10-13T12:01:40;12.60;;;5.13;;
9214;SDS011;4642;51.364;6.788;2023-10-13T12:04:26;20.17;;;6.13;;
9214;SDS011;4642;51.364;6.788;2023-10-13T12:07:18;13.13;;;5.40;;
9214;SDS011;4642;51.364;6.788;2023-10-13T12:09:47;13.80;;;5.17;;
9214;SDS011;4642;51.364;6.788;2023-10-13T12:12:19;11.97;;;5.40;;
9214;SDS011;4642;51.364;6.788;2023-10-13T12:14:47;12.47;;;6.00;;
9214;SDS011;4642;51.364;6.788;2023-10-13T12:17:28;20.17;;;5.40;;
9214;SDS011;4642;51.364;6.788;2023-10-13T12:20:02;15.43;;;5.37;;
9214;SDS011;4642;51.364;6.788;2023-10-13T12:22:36;14.20;;;5.03;;
9214;SDS011;4642;51.364;6.788;2023-10-13T12:25:08;18.10;;;5.70;;
9214;SDS011;4642;51.364;6.788;2023-10-13T12:27:50;15.27;;;5.10;;
9214;SDS011;4642;51.364;6.788;2023-10-13T12:30:21;16.33;;;5.27;;
9214;SDS011;4642;51.364;6.788;2023-10-13T12:33:13;19.70;;;5.57;;
9214;SDS011;4642;51.364;6.788;2023-10-13T12:35:41;15.33;;;5.20;;
9214;SDS011;4642;51.364;6.788;2023-10-13T12:38:23;17.23;;;6.23;;
9214;SDS011;4642;51.364;6.788;2023-10-13T12:41:08;16.77;;;5.40;;
9214;SDS011;4642;51.364;6.788;2023-10-13T12:43:52;19.00;;;5.47;;
9214;SDS011;4642;51.364;6.788;2023-10-13T12:46:36;20.20;;;5.33;;
9214;SDS011;4642;51.364;6.788;2023-10-13T12:49:20;18.43;;;5.40;;
9214;SDS011;4642;51.364;6.788;2023-10-13T12:52:04;14.87;;;5.37;;
9214;SDS011;4642;51.364;6.788;2023-10-13T12:54:30;17.00;;;5.33;;
9214;SDS011;4642;51.364;6.788;2023-10-13T12:57:03;21.73;;;5.20;;
9214;SDS011;4642;51.364;6.788;2023-10-13T12:59:34;16.00;;;5.27;;
9214;SDS011;4642;51.364;6.788;2023-10-13T13:01:59;18.60;;;5.60;;
9214;SDS011;4642;51.364;6.788;2023-10-13T13:04:31;17.83;;;6.00;;
9214;SDS011;4642;51.364;6.788;2023-10-13T13:07:01;18.70;;;5.50;;
9214;SDS011;4642;51.364;6.788;2023-10-13T13:09:28;19.90;;;5.37;;
9214;SDS011;4642;51.364;6.788;2023-10-13T13:11:54;16.43;;;5.00;;
9214;SDS011;4642;51.364;6.788;2023-10-13T13:14:23;15.03;;;5.27;;
9214;SDS011;4642;51.364;6.788;2023-10-13T13:16:55;24.57;;;5.27;;
9214;SDS011;4642;51.364;6.788;2023-10-13T13:19:30;19.50;;;5.67;;
9214;SDS011;4642;51.364;6.788;2023-10-13T13:21:59;17.33;;;5.13;;
9214;SDS011;4642;51.364;6.788;2023-10-13T13:24:24;14.13;;;5.37;;
9214;SDS011;4642;51.364;6.788;2023-10-13T13:26:54;17.07;;;5.83;;
9214;SDS011;4642;51.364;6.788;2023-10-13T13:29:21;26.23;;;5.43;;
9214;SDS011;4642;51.364;6.788;2023-10-13T13:31:46;19.47;;;5.50;;
9214;SDS011;4642;51.364;6.788;2023-10-13T13:34:12;16.77;;;5.10;;
9214;SDS011;4642;51.364;6.788;2023-10-13T13:36:38;17.93;;;5.73;;
9214;SDS011;4642;51.364;6.788;2023-10-13T13:39:05;17.43;;;5.40;;
9214;SDS011;4642;51.364;6.788;2023-10-13T13:41:32;27.50;;;5.50;;
9214;SDS011;4642;51.364;6.788;2023-10-13T13:43:58;17.83;;;5.40;;
9214;SDS011;4642;51.364;6.788;2023-10-13T13:46:38;17.13;;;5.73;;
9214;SDS011;4642;51.364;6.788;2023-10-13T13:49:06;16.53;;;5.37;;
9214;SDS011;4642;51.364;6.788;2023-10-13T13:51:32;27.63;;;5.27;;
9214;SDS011;4642;51.364;6.788;2023-10-13T13:53:58;19.93;;;5.40;;
9214;SDS011;4642;51.364;6.788;2023-10-13T13:56:25;21.97;;;5.30;;
9214;SDS011;4642;51.364;6.788;2023-10-13T13:58:52;16.77;;;4.47;;
9214;SDS011;4642;51.364;6.788;2023-10-13T14:01:19;19.83;;;5.47;;
9214;SDS011;4642;51.364;6.788;2023-10-13T14:03:50;19.77;;;6.00;;
9214;SDS011;4642;51.364;6.788;2023-10-13T14:06:20;19.47;;;5.40;;
9214;SDS011;4642;51.364;6.788;2023-10-13T14:08:50;19.77;;;4.67;;
9214;SDS011;4642;51.364;6.788;2023-10-13T14:11:19;19.73;;;5.67;;
9214;SDS011;4642;51.364;6.788;2023-10-13T14:14:04;21.90;;;5.47;;
9214;SDS011;4642;51.364;6.788;2023-10-13T14:16:37;18.83;;;5.73;;
9214;SDS011;4642;51.364;6.788;2023-10-13T14:19:10;18.10;;;5.03;;
9214;SDS011;4642;51.364;6.788;2023-10-13T14:21:36;13.50;;;4.97;;
9214;SDS011;4642;51.364;6.788;2023-10-13T14:24:03;19.43;;;5.00;;
9214;SDS011;4642;51.364;6.788;2023-10-13T14:26:37;21.40;;;5.60;;
9214;SDS011;4642;51.364;6.788;2023-10-13T14:29:03;21.77;;;5.43;;
9214;SDS011;4642;51.364;6.788;2023-10-13T14:31:33;20.53;;;5.10;;
9214;SDS011;4642;51.364;6.788;2023-10-13T14:34:02;20.87;;;5.13;;
9214;SDS011;4642;51.364;6.788;2023-10-13T14:36:28;18.07;;;5.57;;
9214;SDS011;4642;51.364;6.788;2023-10-13T14:38:54;21.27;;;5.80;;
9214;SDS011;4642;51.364;6.788;2023-10-13T14:41:20;17.23;;;5.27;;
9214;SDS011;4642;51.364;6.788;2023-10-13T14:43:46;18.53;;;4.93;;
9214;SDS011;4642;51.364;6.788;2023-10-13T14:46:16;21.60;;;4.83;;
9214;SDS011;4642;51.364;6.788;2023-10-13T14:48:42;23.90;;;5.07;;
9214;SDS011;4642;51.364;6.788;2023-10-13T14:51:09;15.80;;;5.10;;
9214;SDS011;4642;51.364;6.788;2023-10-13T14:53:38;17.40;;;5.80;;
9214;SDS011;4642;51.364;6.788;2023-10-13T14:56:08;15.73;;;5.17;;
9214;SDS011;4642;51.364;6.788;2023-10-13T14:58:37;22.97;;;5.43;;
9214;SDS011;4642;51.364;6.788;2023-10-13T15:01:16;15.20;;;4.70;;
9214;SDS011;4642;51.364;6.788;2023-10-13T15:03:43;15.80;;;4.73;;
9214;SDS011;4642;51.364;6.788;2023-10-13T15:06:16;18.90;;;4.77;;
9214;SDS011;4642;51.364;6.788;2023-10-13T15:08:46;15.47;;;4.53;;
9214;SDS011;4642;51.364;6.788;2023-10-13T15:11:12;15.13;;;4.77;;
9214;SDS011;4642;51.364;6.788;2023-10-13T15:13:41;12.73;;;4.73;;
9214;SDS011;4642;51.364;6.788;2023-10-13T15:16:16;15.37;;;5.43;;
9214;SDS011;4642;51.364;6.788;2023-10-13T15:18:46;15.87;;;4.83;;
9214;SDS011;4642;51.364;6.788;2023-10-13T15:21:23;16.93;;;5.00;;
9214;SDS011;4642;51.364;6.788;2023-10-13T15:24:02;20.87;;;4.80;;
9214;SDS011;4642;51.364;6.788;2023-10-13T15:26:46;9.50;;;4.60;;
9214;SDS011;4642;51.364;6.788;2023-10-13T15:29:17;14.10;;;5.20;;
9214;SDS011;4642;51.364;6.788;2023-10-13T15:31:50;12.57;;;4.70;;
9214;SDS011;4642;51.364;6.788;2023-10-13T15:34:25;16.13;;;4.37;;
9214;SDS011;4642;51.364;6.788;2023-10-13T15:36:52;15.50;;;4.40;;
9214;SDS011;4642;51.364;6.788;2023-10-13T15:39:19;16.30;;;4.40;;
9214;SDS011;4642;51.364;6.788;2023-10-13T15:41:56;8.70;;;4.30;;
9214;SDS011;4642;51.364;6.788;2023-10-13T15:44:25;23.23;;;5.30;;
9214;SDS011;4642;51.364;6.788;2023-10-13T15:46:54;14.10;;;4.77;;
9214;SDS011;4642;51.364;6.788;2023-10-13T15:49:22;9.93;;;4.30;;
9214;SDS011;4642;51.364;6.788;2023-10-13T15:51:48;12.57;;;4.60;;
9214;SDS011;4642;51.364;6.788;2023-10-13T15:54:14;15.10;;;5.13;;